sensor_id;sensor_type;location;lat;lon;timestamp;temperature;humidity
1413;DHT22;701;52.526;13.408;2023-09-12T00:02:12;21.20;13.80
1413;DHT22;701;52.526;13.408;2023-09-12T00:04:38;21.20;13.80
1413;DHT22;701;52.526;13.408;2023-09-12T00:07:03;21.20;13.70
1413;DHT22;701;52.526;13.408;2023-09-12T00:09:29;21.20;13.80
1413;DHT22;701;52.526;13.408;2023-09-12T00:11:55;21.20;13.80
1413;DHT22;701;52.526;13.408;2023-09-12T00:14:21;21.20;13.70
1413;DHT22;701;52.526;13.408;2023-09-12T00:16:46;21.20;13.50
1413;DHT22;701;52.526;13.408;2023-09-12T00:19:12;21.20;13.50
1413;DHT22;701;52.526;13.408;2023-09-12T00:21:39;21.20;13.50
1413;DHT22;701;52.526;13.408;2023-09-12T00:24:06;21.20;13.40
1413;DHT22;701;52.526;13.408;2023-09-12T00:26:32;21.20;13.20
1413;DHT22;701;52.526;13.408;2023-09-12T00:28:58;21.20;13.40
1413;DHT22;701;52.526;13.408;2023-09-12T00:31:24;21.10;13.30
1413;DHT22;701;52.526;13.408;2023-09-12T00:33:50;21.10;13.10
1413;DHT22;701;52.526;13.408;2023-09-12T00:36:16;21.10;13.10
1413;DHT22;701;52.526;13.408;2023-09-12T00:38:41;21.10;13.10
1413;DHT22;701;52.526;13.408;2023-09-12T00:41:07;21.10;13.10
1413;DHT22;701;52.526;13.408;2023-09-12T00:43:33;21.10;13.10
1413;DHT22;701;52.526;13.408;2023-09-12T00:46:00;21.10;13.10
1413;DHT22;701;52.526;13.408;2023-09-12T00:48:26;21.10;13.10
1413;DHT22;701;52.526;13.408;2023-09-12T00:50:52;21.00;13.00
1413;DHT22;701;52.526;13.408;2023-09-12T00:53:19;21.00;13.00
1413;DHT22;701;52.526;13.408;2023-09-12T00:55:50;21.00;13.00
1413;DHT22;701;52.526;13.408;2023-09-12T00:58:18;21.00;13.00
1413;DHT22;701;52.526;13.408;2023-09-12T01:00:44;21.00;13.00
1413;DHT22;701;52.526;13.408;2023-09-12T01:03:10;21.00;13.00
1413;DHT22;701;52.526;13.408;2023-09-12T01:05:36;21.00;13.50
1413;DHT22;701;52.526;13.408;2023-09-12T01:08:01;20.90;13.40
1413;DHT22;701;52.526;13.408;2023-09-12T01:10:28;20.90;13.60
1413;DHT22;701;52.526;13.408;2023-09-12T01:12:53;20.90;13.90
1413;DHT22;701;52.526;13.408;2023-09-12T01:15:19;20.90;13.90
1413;DHT22;701;52.526;13.408;2023-09-12T01:17:45;20.80;13.80
1413;DHT22;701;52.526;13.408;2023-09-12T01:20:15;20.80;13.90
1413;DHT22;701;52.526;13.408;2023-09-12T01:28:41;20.80;14.50
1413;DHT22;701;52.526;13.408;2023-09-12T01:31:11;20.70;14.20
1413;DHT22;701;52.526;13.408;2023-09-12T01:33:37;20.70;14.40
1413;DHT22;701;52.526;13.408;2023-09-12T01:36:03;20.70;14.50
1413;DHT22;701;52.526;13.408;2023-09-12T01:38:29;20.60;14.50
1413;DHT22;701;52.526;13.408;2023-09-12T01:40:55;20.60;14.50
1413;DHT22;701;52.526;13.408;2023-09-12T01:43:23;20.60;14.60
1413;DHT22;701;52.526;13.408;2023-09-12T01:45:56;20.60;14.90
1413;DHT22;701;52.526;13.408;2023-09-12T01:48:28;20.60;15.10
1413;DHT22;701;52.526;13.408;2023-09-12T01:50:59;20.60;15.20
1413;DHT22;701;52.526;13.408;2023-09-12T01:53:26;20.50;15.70
1413;DHT22;701;52.526;13.408;2023-09-12T01:55:53;20.60;15.30
1413;DHT22;701;52.526;13.408;2023-09-12T01:58:19;20.50;15.30
1413;DHT22;701;52.526;13.408;2023-09-12T02:00:45;20.50;15.50
1413;DHT22;701;52.526;13.408;2023-09-12T02:03:11;20.50;15.50
1413;DHT22;701;52.526;13.408;2023-09-12T02:05:37;20.40;15.50
1413;DHT22;701;52.526;13.408;2023-09-12T02:08:03;20.40;15.50
1413;DHT22;701;52.526;13.408;2023-09-12T02:10:30;20.40;15.50
1413;DHT22;701;52.526;13.408;2023-09-12T02:12:56;20.40;15.50
1413;DHT22;701;52.526;13.408;2023-09-12T02:15:22;20.40;15.70
1413;DHT22;701;52.526;13.408;2023-09-12T02:17:48;20.30;15.70
1413;DHT22;701;52.526;13.408;2023-09-12T02:20:16;20.30;15.80
1413;DHT22;701;52.526;13.408;2023-09-12T02:22:41;20.30;16.00
1413;DHT22;701;52.526;13.408;2023-09-12T02:25:07;20.30;16.10
1413;DHT22;701;52.526;13.408;2023-09-12T02:27:34;20.30;16.20
1413;DHT22;701;52.526;13.408;2023-09-12T02:29:59;20.20;16.30
1413;DHT22;701;52.526;13.408;2023-09-12T02:32:25;20.20;16.30
1413;DHT22;701;52.526;13.408;2023-09-12T02:34:51;20.20;16.30
1413;DHT22;701;52.526;13.408;2023-09-12T02:37:19;20.10;16.20
1413;DHT22;701;52.526;13.408;2023-09-12T02:39:45;20.10;16.20
1413;DHT22;701;52.526;13.408;2023-09-12T02:42:10;20.10;16.40
1413;DHT22;701;52.526;13.408;2023-09-12T02:44:36;20.10;16.70
1413;DHT22;701;52.526;13.408;2023-09-12T02:47:04;20.10;16.80
1413;DHT22;701;52.526;13.408;2023-09-12T02:49:31;20.00;16.80
1413;DHT22;701;52.526;13.408;2023-09-12T02:51:57;20.00;16.90
1413;DHT22;701;52.526;13.408;2023-09-12T02:54:23;20.00;17.00
1413;DHT22;701;52.526;13.408;2023-09-12T02:56:49;20.00;17.00
1413;DHT22;701;52.526;13.408;2023-09-12T02:59:14;20.00;17.00
1413;DHT22;701;52.526;13.408;2023-09-12T03:01:40;20.00;16.90
1413;DHT22;701;52.526;13.408;2023-09-12T03:04:06;20.00;16.90
1413;DHT22;701;52.526;13.408;2023-09-12T03:06:32;20.00;16.80
1413;DHT22;701;52.526;13.408;2023-09-12T03:08:59;20.00;16.40
1413;DHT22;701;52.526;13.408;2023-09-12T03:11:27;20.10;16.20
1413;DHT22;701;52.526;13.408;2023-09-12T03:13:53;20.00;16.10
1413;DHT22;701;52.526;13.408;2023-09-12T03:16:19;20.10;16.20
1413;DHT22;701;52.526;13.408;2023-09-12T03:18:45;20.10;16.20
1413;DHT22;701;52.526;13.408;2023-09-12T03:21:11;20.10;15.90
1413;DHT22;701;52.526;13.408;2023-09-12T03:23:37;20.10;15.90
1413;DHT22;701;52.526;13.408;2023-09-12T03:26:04;20.20;15.80
1413;DHT22;701;52.526;13.408;2023-09-12T03:28:31;20.20;15.80
1413;DHT22;701;52.526;13.408;2023-09-12T03:31:06;20.20;15.70
1413;DHT22;701;52.526;13.408;2023-09-12T03:33:33;20.20;15.90
1413;DHT22;701;52.526;13.408;2023-09-12T03:35:58;20.10;15.80
1413;DHT22;701;52.526;13.408;2023-09-12T03:38:24;20.10;15.90
1413;DHT22;701;52.526;13.408;2023-09-12T03:40:50;20.10;16.20
1413;DHT22;701;52.526;13.408;2023-09-12T03:43:16;20.10;16.20
1413;DHT22;701;52.526;13.408;2023-09-12T03:45:42;20.10;16.20
1413;DHT22;701;52.526;13.408;2023-09-12T03:48:08;20.10;16.20
1413;DHT22;701;52.526;13.408;2023-09-12T03:50:34;20.10;16.80
1413;DHT22;701;52.526;13.408;2023-09-12T03:53:00;20.10;16.20
1413;DHT22;701;52.526;13.408;2023-09-12T03:55:25;20.10;16.20
1413;DHT22;701;52.526;13.408;2023-09-12T03:57:51;20.10;16.20
1413;DHT22;701;52.526;13.408;2023-09-12T04:00:17;20.00;16.10
1413;DHT22;701;52.526;13.408;2023-09-12T04:02:46;20.10;16.20
1413;DHT22;701;52.526;13.408;2023-09-12T04:05:14;20.00;16.10
1413;DHT22;701;52.526;13.408;2023-09-12T04:07:40;20.00;16.20
1413;DHT22;701;52.526;13.408;2023-09-12T04:10:06;20.00;16.10
1413;DHT22;701;52.526;13.408;2023-09-12T04:12:32;20.00;16.20
1413;DHT22;701;52.526;13.408;2023-09-12T04:14:57;20.00;16.20
1413;DHT22;701;52.526;13.408;2023-09-12T04:17:23;20.00;16.10
1413;DHT22;701;52.526;13.408;2023-09-12T04:19:49;20.00;16.10
1413;DHT22;701;52.526;13.408;2023-09-12T04:22:15;20.00;16.10
1413;DHT22;701;52.526;13.408;2023-09-12T04:24:41;20.00;16.10
1413;DHT22;701;52.526;13.408;2023-09-12T04:27:07;20.00;16.10
1413;DHT22;701;52.526;13.408;2023-09-12T04:29:33;20.00;16.10
1413;DHT22;701;52.526;13.408;2023-09-12T04:32:04;19.90;16.10
1413;DHT22;701;52.526;13.408;2023-09-12T04:34:30;19.90;16.10
1413;DHT22;701;52.526;13.408;2023-09-12T04:36:56;19.90;16.10
1413;DHT22;701;52.526;13.408;2023-09-12T04:39:23;19.90;16.00
1413;DHT22;701;52.526;13.408;2023-09-12T04:41:49;19.90;15.90
1413;DHT22;701;52.526;13.408;2023-09-12T04:44:14;19.90;16.10
1413;DHT22;701;52.526;13.408;2023-09-12T04:46:40;19.90;15.80
1413;DHT22;701;52.526;13.408;2023-09-12T04:49:06;20.00;15.80
1413;DHT22;701;52.526;13.408;2023-09-12T04:51:32;20.00;15.70
1413;DHT22;701;52.526;13.408;2023-09-12T04:53:57;20.00;15.60
1413;DHT22;701;52.526;13.408;2023-09-12T04:56:23;20.10;15.60
1413;DHT22;701;52.526;13.408;2023-09-12T04:58:52;20.10;15.50
1413;DHT22;701;52.526;13.408;2023-09-12T05:01:19;20.20;15.40
1413;DHT22;701;52.526;13.408;2023-09-12T05:03:45;20.20;15.30
1413;DHT22;701;52.526;13.408;2023-09-12T05:06:11;20.30;15.40
1413;DHT22;701;52.526;13.408;2023-09-12T05:08:37;20.30;15.20
1413;DHT22;701;52.526;13.408;2023-09-12T05:11:03;20.40;15.20
1413;DHT22;701;52.526;13.408;2023-09-12T05:13:29;20.50;15.10
1413;DHT22;701;52.526;13.408;2023-09-12T05:15:56;20.50;15.00
1413;DHT22;701;52.526;13.408;2023-09-12T05:18:23;20.60;14.70
1413;DHT22;701;52.526;13.408;2023-09-12T05:20:49;20.70;14.50
1413;DHT22;701;52.526;13.408;2023-09-12T05:23:15;20.80;14.40
1413;DHT22;701;52.526;13.408;2023-09-12T05:25:41;20.90;14.20
1413;DHT22;701;52.526;13.408;2023-09-12T05:28:06;21.00;14.00
1413;DHT22;701;52.526;13.408;2023-09-12T05:30:32;21.10;13.80
1413;DHT22;701;52.526;13.408;2023-09-12T05:32:58;21.20;13.40
1413;DHT22;701;52.526;13.408;2023-09-12T05:35:24;21.30;13.20
1413;DHT22;701;52.526;13.408;2023-09-12T05:37:51;21.40;13.30
1413;DHT22;701;52.526;13.408;2023-09-12T05:40:18;21.60;13.00
1413;DHT22;701;52.526;13.408;2023-09-12T05:42:44;21.70;12.50
1413;DHT22;701;52.526;13.408;2023-09-12T05:45:10;21.70;12.00
1413;DHT22;701;52.526;13.408;2023-09-12T05:47:36;21.80;11.60
1413;DHT22;701;52.526;13.408;2023-09-12T05:50:02;21.80;11.40
1413;DHT22;701;52.526;13.408;2023-09-12T05:52:31;21.90;11.20
1413;DHT22;701;52.526;13.408;2023-09-12T05:54:57;21.90;10.90
1413;DHT22;701;52.526;13.408;2023-09-12T05:57:23;21.90;10.70
1413;DHT22;701;52.526;13.408;2023-09-12T05:59:49;22.00;10.60
1413;DHT22;701;52.526;13.408;2023-09-12T06:02:15;22.00;10.40
1413;DHT22;701;52.526;13.408;2023-09-12T06:04:43;22.10;10.40
1413;DHT22;701;52.526;13.408;2023-09-12T06:07:09;22.20;10.00
1413;DHT22;701;52.526;13.408;2023-09-12T06:09:35;22.20;10.00
1413;DHT22;701;52.526;13.408;2023-09-12T06:12:02;22.30;9.70
1413;DHT22;701;52.526;13.408;2023-09-12T06:14:27;22.40;9.60
1413;DHT22;701;52.526;13.408;2023-09-12T06:16:53;22.50;9.30
1413;DHT22;701;52.526;13.408;2023-09-12T06:19:19;22.60;9.10
1413;DHT22;701;52.526;13.408;2023-09-12T06:21:46;22.60;8.80
1413;DHT22;701;52.526;13.408;2023-09-12T06:26:39;22.70;8.80
1413;DHT22;701;52.526;13.408;2023-09-12T06:29:05;22.80;8.70
1413;DHT22;701;52.526;13.408;2023-09-12T06:31:31;22.90;8.60
1413;DHT22;701;52.526;13.408;2023-09-12T06:33:57;23.00;8.50
1413;DHT22;701;52.526;13.408;2023-09-12T06:36:26;23.00;8.00
1413;DHT22;701;52.526;13.408;2023-09-12T06:38:58;23.10;7.70
1413;DHT22;701;52.526;13.408;2023-09-12T06:41:25;23.30;7.40
1413;DHT22;701;52.526;13.408;2023-09-12T06:43:50;23.30;7.00
1413;DHT22;701;52.526;13.408;2023-09-12T06:46:16;23.50;6.90
1413;DHT22;701;52.526;13.408;2023-09-12T06:48:45;23.60;7.00
1413;DHT22;701;52.526;13.408;2023-09-12T06:51:11;23.70;7.00
1413;DHT22;701;52.526;13.408;2023-09-12T06:53:37;23.80;6.70
1413;DHT22;701;52.526;13.408;2023-09-12T06:56:06;23.90;6.30
1413;DHT22;701;52.526;13.408;2023-09-12T06:58:32;24.00;6.00
1413;DHT22;701;52.526;13.408;2023-09-12T07:01:02;24.10;5.70
1413;DHT22;701;52.526;13.408;2023-09-12T07:03:30;24.20;5.40
1413;DHT22;701;52.526;13.408;2023-09-12T07:05:56;24.30;4.90
1413;DHT22;701;52.526;13.408;2023-09-12T07:08:22;24.40;4.60
1413;DHT22;701;52.526;13.408;2023-09-12T07:10:47;24.50;4.50
1413;DHT22;701;52.526;13.408;2023-09-12T07:13:13;24.50;4.00
1413;DHT22;701;52.526;13.408;2023-09-12T07:15:39;24.60;3.70
1413;DHT22;701;52.526;13.408;2023-09-12T07:18:05;24.60;3.70
1413;DHT22;701;52.526;13.408;2023-09-12T07:20:33;24.70;3.70
1413;DHT22;701;52.526;13.408;2023-09-12T07:22:59;24.70;3.70
1413;DHT22;701;52.526;13.408;2023-09-12T07:25:24;24.70;3.80
1413;DHT22;701;52.526;13.408;2023-09-12T07:27:51;24.80;3.80
1413;DHT22;701;52.526;13.408;2023-09-12T07:30:16;24.90;3.90
1413;DHT22;701;52.526;13.408;2023-09-12T07:32:42;24.90;3.80
1413;DHT22;701;52.526;13.408;2023-09-12T07:35:08;25.00;3.60
1413;DHT22;701;52.526;13.408;2023-09-12T07:37:34;25.10;3.50
1413;DHT22;701;52.526;13.408;2023-09-12T07:40:00;25.20;3.40
1413;DHT22;701;52.526;13.408;2023-09-12T07:42:26;25.30;3.30
1413;DHT22;701;52.526;13.408;2023-09-12T07:44:52;25.30;3.10
1413;DHT22;701;52.526;13.408;2023-09-12T07:47:18;25.40;3.00
1413;DHT22;701;52.526;13.408;2023-09-12T07:49:44;25.50;2.90
1413;DHT22;701;52.526;13.408;2023-09-12T07:52:09;25.60;2.80
1413;DHT22;701;52.526;13.408;2023-09-12T07:54:35;25.70;2.70
1413;DHT22;701;52.526;13.408;2023-09-12T07:57:02;25.70;2.60
1413;DHT22;701;52.526;13.408;2023-09-12T07:59:28;25.80;2.50
1413;DHT22;701;52.526;13.408;2023-09-12T08:01:54;25.90;2.30
1413;DHT22;701;52.526;13.408;2023-09-12T08:04:20;26.00;2.20
1413;DHT22;701;52.526;13.408;2023-09-12T08:06:45;26.10;2.20
1413;DHT22;701;52.526;13.408;2023-09-12T08:09:11;26.20;1.80
1413;DHT22;701;52.526;13.408;2023-09-12T08:11:37;26.20;1.70
1413;DHT22;701;52.526;13.408;2023-09-12T08:14:03;26.30;1.60
1413;DHT22;701;52.526;13.408;2023-09-12T08:16:28;26.40;1.50
1413;DHT22;701;52.526;13.408;2023-09-12T08:18:56;26.50;1.40
1413;DHT22;701;52.526;13.408;2023-09-12T08:21:22;26.60;1.30
1413;DHT22;701;52.526;13.408;2023-09-12T08:23:47;26.60;1.00
1413;DHT22;701;52.526;13.408;2023-09-12T08:26:13;26.70;1.00
1413;DHT22;701;52.526;13.408;2023-09-12T08:28:39;26.80;1.00
1413;DHT22;701;52.526;13.408;2023-09-12T08:31:05;26.90;1.00
1413;DHT22;701;52.526;13.408;2023-09-12T08:33:31;26.90;1.00
1413;DHT22;701;52.526;13.408;2023-09-12T08:35:57;27.00;1.00
1413;DHT22;701;52.526;13.408;2023-09-12T08:38:22;27.10;1.00
1413;DHT22;701;52.526;13.408;2023-09-12T08:40:49;27.20;1.00
1413;DHT22;701;52.526;13.408;2023-09-12T08:43:16;27.30;1.00
1413;DHT22;701;52.526;13.408;2023-09-12T08:45:42;27.70;1.00
1413;DHT22;701;52.526;13.408;2023-09-12T08:48:11;28.80;1.00
1413;DHT22;701;52.526;13.408;2023-09-12T08:50:38;30.30;1.00
1413;DHT22;701;52.526;13.408;2023-09-12T08:53:04;32.00;1.00
1413;DHT22;701;52.526;13.408;2023-09-12T08:55:34;33.60;1.00
1413;DHT22;701;52.526;13.408;2023-09-12T08:58:04;35.10;1.00
1413;DHT22;701;52.526;13.408;2023-09-12T09:00:30;36.40;1.00
1413;DHT22;701;52.526;13.408;2023-09-12T09:02:57;37.50;1.00
1413;DHT22;701;52.526;13.408;2023-09-12T09:05:24;38.50;1.00
1413;DHT22;701;52.526;13.408;2023-09-12T09:07:51;39.30;1.00
1413;DHT22;701;52.526;13.408;2023-09-12T09:10:18;40.00;1.00
1413;DHT22;701;52.526;13.408;2023-09-12T09:12:46;40.60;1.00
1413;DHT22;701;52.526;13.408;2023-09-12T09:15:28;40.90;1.00
1413;DHT22;701;52.526;13.408;2023-09-12T09:17:56;41.00;1.00
1413;DHT22;701;52.526;13.408;2023-09-12T09:20:27;41.10;1.00
1413;DHT22;701;52.526;13.408;2023-09-12T09:25:23;41.30;1.00
1413;DHT22;701;52.526;13.408;2023-09-12T09:27:49;41.10;1.00
1413;DHT22;701;52.526;13.408;2023-09-12T09:30:14;41.00;1.00
1413;DHT22;701;52.526;13.408;2023-09-12T09:32:40;40.90;1.00
1413;DHT22;701;52.526;13.408;2023-09-12T09:35:07;40.70;1.00
1413;DHT22;701;52.526;13.408;2023-09-12T09:37:33;40.60;1.00
1413;DHT22;701;52.526;13.408;2023-09-12T09:39:59;40.40;1.00
1413;DHT22;701;52.526;13.408;2023-09-12T09:42:29;39.90;1.00
1413;DHT22;701;52.526;13.408;2023-09-12T09:44:54;39.70;1.00
1413;DHT22;701;52.526;13.408;2023-09-12T09:47:20;39.50;1.00
1413;DHT22;701;52.526;13.408;2023-09-12T09:49:51;39.40;1.00
1413;DHT22;701;52.526;13.408;2023-09-12T09:52:25;39.30;1.00
1413;DHT22;701;52.526;13.408;2023-09-12T09:54:52;39.40;1.00
1413;DHT22;701;52.526;13.408;2023-09-12T09:57:18;39.30;1.00
1413;DHT22;701;52.526;13.408;2023-09-12T09:59:49;39.20;1.00
1413;DHT22;701;52.526;13.408;2023-09-12T10:02:18;38.70;1.00
1413;DHT22;701;52.526;13.408;2023-09-12T10:04:48;38.50;1.00
1413;DHT22;701;52.526;13.408;2023-09-12T10:07:16;38.30;1.00
1413;DHT22;701;52.526;13.408;2023-09-12T10:09:43;37.90;1.00
1413;DHT22;701;52.526;13.408;2023-09-12T10:12:10;37.60;1.00
1413;DHT22;701;52.526;13.408;2023-09-12T10:14:39;37.40;1.00
1413;DHT22;701;52.526;13.408;2023-09-12T10:17:06;37.40;1.00
1413;DHT22;701;52.526;13.408;2023-09-12T10:19:38;37.40;1.00
1413;DHT22;701;52.526;13.408;2023-09-12T10:22:15;37.30;1.00
1413;DHT22;701;52.526;13.408;2023-09-12T10:24:44;37.20;1.00
1413;DHT22;701;52.526;13.408;2023-09-12T10:27:12;37.20;1.00
1413;DHT22;701;52.526;13.408;2023-09-12T10:29:38;37.20;1.00
1413;DHT22;701;52.526;13.408;2023-09-12T10:32:05;37.30;1.00
1413;DHT22;701;52.526;13.408;2023-09-12T10:34:32;37.20;1.00
1413;DHT22;701;52.526;13.408;2023-09-12T10:36:59;37.00;1.00
1413;DHT22;701;52.526;13.408;2023-09-12T10:39:32;36.80;1.00
1413;DHT22;701;52.526;13.408;2023-09-12T10:41:58;36.60;1.00
1413;DHT22;701;52.526;13.408;2023-09-12T10:44:25;36.40;1.00
1413;DHT22;701;52.526;13.408;2023-09-12T10:46:52;36.20;1.00
1413;DHT22;701;52.526;13.408;2023-09-12T10:49:19;36.10;1.00
1413;DHT22;701;52.526;13.408;2023-09-12T10:51:46;35.90;1.00
1413;DHT22;701;52.526;13.408;2023-09-12T10:54:35;35.70;1.00
1413;DHT22;701;52.526;13.408;2023-09-12T10:57:11;35.60;1.00
1413;DHT22;701;52.526;13.408;2023-09-12T11:00:11;35.40;1.00
1413;DHT22;701;52.526;13.408;2023-09-12T11:02:38;35.20;1.00
1413;DHT22;701;52.526;13.408;2023-09-12T11:08:00;34.90;1.00
1413;DHT22;701;52.526;13.408;2023-09-12T11:10:27;34.80;1.00
1413;DHT22;701;52.526;13.408;2023-09-12T11:12:54;34.70;1.00
1413;DHT22;701;52.526;13.408;2023-09-12T11:15:23;34.60;1.00
1413;DHT22;701;52.526;13.408;2023-09-12T11:18:04;34.50;1.00
1413;DHT22;701;52.526;13.408;2023-09-12T11:23:14;34.20;1.00
1413;DHT22;701;52.526;13.408;2023-09-12T11:25:40;34.10;1.00
1413;DHT22;701;52.526;13.408;2023-09-12T11:28:06;34.00;1.00
1413;DHT22;701;52.526;13.408;2023-09-12T11:30:32;33.80;1.00
1413;DHT22;701;52.526;13.408;2023-09-12T11:32:59;33.70;1.00
1413;DHT22;701;52.526;13.408;2023-09-12T11:35:27;33.60;1.00
1413;DHT22;701;52.526;13.408;2023-09-12T11:37:55;33.50;1.00
1413;DHT22;701;52.526;13.408;2023-09-12T11:43:00;33.30;1.00
1413;DHT22;701;52.526;13.408;2023-09-12T11:45:27;33.20;1.00
1413;DHT22;701;52.526;13.408;2023-09-12T11:47:54;32.90;1.00
1413;DHT22;701;52.526;13.408;2023-09-12T11:50:29;32.80;1.00
1413;DHT22;701;52.526;13.408;2023-09-12T11:55:25;32.40;1.00
1413;DHT22;701;52.526;13.408;2023-09-12T11:57:51;32.30;1.00
1413;DHT22;701;52.526;13.408;2023-09-12T12:00:18;32.10;1.00
1413;DHT22;701;52.526;13.408;2023-09-12T12:02:47;31.90;1.00
1413;DHT22;701;52.526;13.408;2023-09-12T12:05:13;31.60;1.00
1413;DHT22;701;52.526;13.408;2023-09-12T12:07:39;31.50;1.00
1413;DHT22;701;52.526;13.408;2023-09-12T12:10:05;31.40;1.00
1413;DHT22;701;52.526;13.408;2023-09-12T12:12:31;31.20;1.00
1413;DHT22;701;52.526;13.408;2023-09-12T12:14:57;31.10;1.00
1413;DHT22;701;52.526;13.408;2023-09-12T12:17:22;31.00;1.00
1413;DHT22;701;52.526;13.408;2023-09-12T12:19:48;31.00;1.00
1413;DHT22;701;52.526;13.408;2023-09-12T12:22:14;30.90;1.00
1413;DHT22;701;52.526;13.408;2023-09-12T12:24:45;30.90;1.00
1413;DHT22;701;52.526;13.408;2023-09-12T12:27:14;30.80;1.00
1413;DHT22;701;52.526;13.408;2023-09-12T12:29:40;30.80;1.00
1413;DHT22;701;52.526;13.408;2023-09-12T12:32:06;30.70;1.00
1413;DHT22;701;52.526;13.408;2023-09-12T12:34:34;30.70;1.00
1413;DHT22;701;52.526;13.408;2023-09-12T12:37:00;30.70;1.00
1413;DHT22;701;52.526;13.408;2023-09-12T12:39:26;30.70;1.00
1413;DHT22;701;52.526;13.408;2023-09-12T12:41:53;30.70;1.00
1413;DHT22;701;52.526;13.408;2023-09-12T12:44:19;30.60;1.00
1413;DHT22;701;52.526;13.408;2023-09-12T12:46:52;30.70;1.00
1413;DHT22;701;52.526;13.408;2023-09-12T12:49:19;30.70;1.00
1413;DHT22;701;52.526;13.408;2023-09-12T12:51:46;30.80;1.00
1413;DHT22;701;52.526;13.408;2023-09-12T12:54:12;30.70;1.00
1413;DHT22;701;52.526;13.408;2023-09-12T12:56:37;30.80;1.00
1413;DHT22;701;52.526;13.408;2023-09-12T12:59:05;30.80;1.00
1413;DHT22;701;52.526;13.408;2023-09-12T13:01:35;30.80;1.00
1413;DHT22;701;52.526;13.408;2023-09-12T13:04:01;30.80;1.00
1413;DHT22;701;52.526;13.408;2023-09-12T13:06:27;30.80;1.00
1413;DHT22;701;52.526;13.408;2023-09-12T13:08:55;30.80;1.00
1413;DHT22;701;52.526;13.408;2023-09-12T13:11:22;30.90;1.00
1413;DHT22;701;52.526;13.408;2023-09-12T13:13:50;30.80;1.00
1413;DHT22;701;52.526;13.408;2023-09-12T13:16:17;30.80;1.00
1413;DHT22;701;52.526;13.408;2023-09-12T13:18:43;30.90;1.00
1413;DHT22;701;52.526;13.408;2023-09-12T13:21:08;30.90;1.00
1413;DHT22;701;52.526;13.408;2023-09-12T13:23:36;31.00;1.00
1413;DHT22;701;52.526;13.408;2023-09-12T13:26:02;31.00;1.00
1413;DHT22;701;52.526;13.408;2023-09-12T13:28:28;31.00;1.00
1413;DHT22;701;52.526;13.408;2023-09-12T13:30:55;31.00;1.00
1413;DHT22;701;52.526;13.408;2023-09-12T13:33:21;31.00;1.00
1413;DHT22;701;52.526;13.408;2023-09-12T13:35:48;31.00;1.00
1413;DHT22;701;52.526;13.408;2023-09-12T13:38:14;31.00;1.00
1413;DHT22;701;52.526;13.408;2023-09-12T13:40:43;31.00;1.00
1413;DHT22;701;52.526;13.408;2023-09-12T13:43:09;31.00;1.00
1413;DHT22;701;52.526;13.408;2023-09-12T13:45:35;31.10;1.00
1413;DHT22;701;52.526;13.408;2023-09-12T13:48:02;31.10;1.00
1413;DHT22;701;52.526;13.408;2023-09-12T13:50:29;31.10;1.00
1413;DHT22;701;52.526;13.408;2023-09-12T13:52:59;31.20;1.00
1413;DHT22;701;52.526;13.408;2023-09-12T13:55:25;31.20;1.00
1413;DHT22;701;52.526;13.408;2023-09-12T13:57:51;31.30;1.00
1413;DHT22;701;52.526;13.408;2023-09-12T14:00:17;31.30;1.00
1413;DHT22;701;52.526;13.408;2023-09-12T14:02:43;31.40;1.00
1413;DHT22;701;52.526;13.408;2023-09-12T14:05:11;31.40;1.00
1413;DHT22;701;52.526;13.408;2023-09-12T14:07:37;31.50;1.00
1413;DHT22;701;52.526;13.408;2023-09-12T14:10:06;31.50;1.00
1413;DHT22;701;52.526;13.408;2023-09-12T14:12:32;31.60;1.00
1413;DHT22;701;52.526;13.408;2023-09-12T14:14:58;31.70;1.00
1413;DHT22;701;52.526;13.408;2023-09-12T14:17:23;31.80;1.00
1413;DHT22;701;52.526;13.408;2023-09-12T14:19:49;31.90;1.00
1413;DHT22;701;52.526;13.408;2023-09-12T14:22:15;32.00;1.00
1413;DHT22;701;52.526;13.408;2023-09-12T14:24:41;32.00;1.00
1413;DHT22;701;52.526;13.408;2023-09-12T14:27:06;32.00;1.00
1413;DHT22;701;52.526;13.408;2023-09-12T14:29:32;32.00;1.00
1413;DHT22;701;52.526;13.408;2023-09-12T14:31:58;32.00;1.00
1413;DHT22;701;52.526;13.408;2023-09-12T14:34:25;31.90;1.00
1413;DHT22;701;52.526;13.408;2023-09-12T14:36:55;31.80;1.00
1413;DHT22;701;52.526;13.408;2023-09-12T14:39:21;31.80;1.00
1413;DHT22;701;52.526;13.408;2023-09-12T14:41:47;31.70;1.00
1413;DHT22;701;52.526;13.408;2023-09-12T14:44:26;31.70;1.00
1413;DHT22;701;52.526;13.408;2023-09-12T14:46:54;31.80;1.00
1413;DHT22;701;52.526;13.408;2023-09-12T14:49:19;31.80;1.00
1413;DHT22;701;52.526;13.408;2023-09-12T14:51:45;31.90;1.00
1413;DHT22;701;52.526;13.408;2023-09-12T14:54:11;31.90;1.00
1413;DHT22;701;52.526;13.408;2023-09-12T14:56:37;31.80;1.00
1413;DHT22;701;52.526;13.408;2023-09-12T14:59:04;31.60;1.00
1413;DHT22;701;52.526;13.408;2023-09-12T15:01:30;31.30;1.00
1413;DHT22;701;52.526;13.408;2023-09-12T15:03:56;31.10;1.00
1413;DHT22;701;52.526;13.408;2023-09-12T15:06:22;30.80;1.00
1413;DHT22;701;52.526;13.408;2023-09-12T15:08:51;30.50;1.00
1413;DHT22;701;52.526;13.408;2023-09-12T15:11:17;30.30;1.00
1413;DHT22;701;52.526;13.408;2023-09-12T15:13:42;30.10;1.00
1413;DHT22;701;52.526;13.408;2023-09-12T15:16:09;29.90;1.00
1413;DHT22;701;52.526;13.408;2023-09-12T15:18:35;29.80;1.00
1413;DHT22;701;52.526;13.408;2023-09-12T15:21:03;29.70;1.00
1413;DHT22;701;52.526;13.408;2023-09-12T15:23:29;29.60;1.00
1413;DHT22;701;52.526;13.408;2023-09-12T15:25:56;29.40;1.00
1413;DHT22;701;52.526;13.408;2023-09-12T15:28:21;29.30;1.00
1413;DHT22;701;52.526;13.408;2023-09-12T15:30:47;29.20;1.00
1413;DHT22;701;52.526;13.408;2023-09-12T15:33:12;29.10;1.00
1413;DHT22;701;52.526;13.408;2023-09-12T15:35:38;28.90;1.00
1413;DHT22;701;52.526;13.408;2023-09-12T15:38:05;28.70;1.00
1413;DHT22;701;52.526;13.408;2023-09-12T15:40:32;28.50;1.00
1413;DHT22;701;52.526;13.408;2023-09-12T15:42:58;28.30;1.00
1413;DHT22;701;52.526;13.408;2023-09-12T15:45:24;28.20;1.00
1413;DHT22;701;52.526;13.408;2023-09-12T15:47:50;28.00;1.00
1413;DHT22;701;52.526;13.408;2023-09-12T15:50:15;27.90;1.00
1413;DHT22;701;52.526;13.408;2023-09-12T15:52:41;27.80;1.00
1413;DHT22;701;52.526;13.408;2023-09-12T15:55:09;27.60;1.00
1413;DHT22;701;52.526;13.408;2023-09-12T15:57:36;27.50;1.00
1413;DHT22;701;52.526;13.408;2023-09-12T16:00:06;27.50;1.10
1413;DHT22;701;52.526;13.408;2023-09-12T16:02:38;27.30;1.10
1413;DHT22;701;52.526;13.408;2023-09-12T16:05:05;27.30;1.10
1413;DHT22;701;52.526;13.408;2023-09-12T16:07:30;27.30;1.00
1413;DHT22;701;52.526;13.408;2023-09-12T16:09:56;27.20;1.30
1413;DHT22;701;52.526;13.408;2023-09-12T16:12:22;27.20;1.10
1413;DHT22;701;52.526;13.408;2023-09-12T16:14:52;27.20;1.30
1413;DHT22;701;52.526;13.408;2023-09-12T16:17:18;27.10;1.30
1413;DHT22;701;52.526;13.408;2023-09-12T16:19:44;27.10;1.40
1413;DHT22;701;52.526;13.408;2023-09-12T16:22:10;27.10;1.60
1413;DHT22;701;52.526;13.408;2023-09-12T16:24:36;27.00;1.70
1413;DHT22;701;52.526;13.408;2023-09-12T16:27:02;27.00;1.90
1413;DHT22;701;52.526;13.408;2023-09-12T16:29:28;27.00;2.00
1413;DHT22;701;52.526;13.408;2023-09-12T16:31:54;26.90;2.30